createdAt,value
2022-08-07T00:00:03.532Z,63.64
2022-08-07T00:02:36.200Z,63.77
2022-08-07T00:03:39.161Z,63.92
2022-08-07T00:05:19.310Z,64.12
2022-08-07T00:06:52.274Z,63.95
2022-08-07T00:08:27.239Z,64.01
2022-08-07T00:10:26.558Z,64.43
2022-08-07T00:11:53.857Z,64.23
2022-08-07T00:13:29.195Z,64.59
2022-08-07T00:15:01.370Z,64.54
2022-08-07T00:16:33.298Z,64.53
2022-08-07T00:18:19.208Z,65.03
2022-08-07T00:20:01.379Z,65.01
2022-08-07T00:21:56.269Z,65.53
2022-08-07T00:23:34.762Z,64.79
2022-08-07T00:25:16.486Z,65.09
2022-08-07T00:27:06.015Z,65.06
2022-08-07T00:28:45.700Z,65.42
2022-08-07T00:30:31.805Z,65.04
2022-08-07T00:32:04.124Z,65.65
2022-08-07T00:33:41.894Z,64.99
2022-08-07T00:35:13.813Z,65.76
2022-08-07T00:36:48.670Z,65.97
2022-08-07T00:38:31.600Z,65.74
2022-08-07T00:40:04.258Z,65.51
2022-08-07T00:41:37.419Z,65.57
2022-08-07T00:43:59.520Z,65.89
2022-08-07T00:45:17.638Z,65.48
2022-08-07T00:46:49.953Z,66.40
2022-08-07T00:48:25.099Z,65.82
2022-08-07T00:50:19.185Z,66.25
2022-08-07T00:51:58.732Z,66.63
2022-08-07T00:53:38.808Z,66.22
2022-08-07T00:55:25.601Z,66.23
2022-08-07T00:57:14.728Z,66.73
2022-08-07T00:58:49.862Z,66.62
2022-08-07T01:00:22.475Z,65.94
2022-08-07T01:01:56.694Z,66.26
2022-08-07T01:03:55.707Z,66.40
2022-08-07T01:05:24.616Z,66.40
2022-08-07T01:06:56.768Z,66.35
2022-08-07T01:08:28.732Z,66.09
2022-08-07T01:10:06.038Z,66.04
2022-08-07T01:12:23.616Z,66.26
2022-08-07T01:13:46.737Z,66.46
2022-08-07T01:15:35.646Z,66.75
2022-08-07T01:17:20.548Z,66.97
2022-08-07T01:18:52.606Z,67.04
2022-08-07T01:20:33.656Z,66.44
2022-08-07T01:22:16.225Z,67.55
2022-08-07T01:23:57.322Z,67.06
2022-08-07T01:25:53.854Z,67.00
2022-08-07T01:27:24.972Z,66.29
2022-08-07T01:29:05.599Z,67.01
2022-08-07T01:30:41.267Z,67.13
2022-08-07T01:32:15.159Z,67.52
2022-08-07T01:33:57.387Z,67.46
2022-08-07T01:35:52.651Z,68.10
2022-08-07T01:37:26.129Z,67.92
2022-08-07T01:39:10.144Z,68.01
2022-08-07T01:40:52.675Z,67.69
2022-08-07T01:42:38.077Z,67.71
2022-08-07T01:44:35.941Z,68.67
2022-08-07T01:46:12.141Z,69.30
2022-08-07T01:48:18.601Z,69.33
2022-08-07T01:52:02.735Z,69.13
2022-08-07T01:54:11.600Z,69.23
2022-08-07T01:56:03.125Z,69.78
2022-08-07T01:58:01.204Z,69.11
2022-08-07T01:59:49.824Z,69.47
2022-08-07T02:02:01.588Z,69.13
2022-08-07T02:03:54.519Z,69.94
2022-08-07T02:05:47.475Z,69.68
2022-08-07T02:07:45.067Z,69.93
2022-08-07T02:09:52.343Z,69.88
2022-08-07T02:11:30.806Z,69.21
2022-08-07T02:13:15.005Z,69.50
2022-08-07T02:14:57.637Z,69.79
2022-08-07T02:16:37.841Z,69.69
2022-08-07T02:18:11.836Z,70.13
2022-08-07T02:20:05.511Z,70.50
2022-08-07T02:21:56.568Z,69.94
2022-08-07T02:23:35.912Z,69.69
2022-08-07T02:25:17.171Z,70.17
2022-08-07T02:27:01.261Z,69.86
2022-08-07T02:28:36.838Z,70.15
2022-08-07T02:30:14.467Z,69.92
2022-08-07T02:31:48.560Z,70.45
2022-08-07T02:33:20.971Z,70.01
2022-08-07T02:34:53.997Z,70.11
2022-08-07T02:36:32.705Z,70.00
2022-08-07T02:38:11.129Z,69.47
2022-08-07T02:40:11.868Z,68.89
2022-08-07T02:41:37.583Z,69.38
2022-08-07T02:43:11.534Z,69.78
2022-08-07T02:44:48.716Z,70.09
2022-08-07T02:46:26.778Z,70.24
2022-08-07T02:48:01.978Z,69.81
2022-08-07T02:49:58.092Z,70.60
2022-08-07T02:51:49.631Z,70.18
2022-08-07T02:53:30.258Z,69.96
2022-08-07T02:55:27.409Z,70.27
2022-08-07T02:57:02.356Z,70.58
2022-08-07T02:58:47.267Z,69.77
2022-08-07T03:00:20.739Z,70.09
2022-08-07T03:01:55.449Z,70.42
2022-08-07T03:03:42.153Z,70.50
2022-08-07T03:05:25.414Z,69.73
2022-08-07T03:06:59.865Z,70.60
2022-08-07T03:08:39.453Z,70.39
2022-08-07T03:10:12.080Z,70.54
2022-08-07T03:11:52.476Z,70.62
2022-08-07T03:13:38.919Z,70.81
2022-08-07T03:15:47.397Z,71.40
2022-08-07T03:17:13.550Z,70.61
2022-08-07T03:18:46.087Z,71.11
2022-08-07T03:20:19.810Z,70.75
2022-08-07T03:21:52.610Z,70.62
2022-08-07T03:23:34.127Z,70.91
2022-08-07T03:25:21.321Z,71.67
2022-08-07T03:26:59.060Z,71.71
2022-08-07T03:28:39.434Z,71.59
2022-08-07T03:30:13.261Z,71.56
2022-08-07T03:31:49.892Z,72.44
2022-08-07T03:33:24.164Z,72.40
2022-08-07T03:35:17.711Z,72.75
2022-08-07T03:36:53.266Z,73.00
2022-08-07T03:38:29.471Z,73.28
2022-08-07T03:40:15.458Z,74.04
2022-08-07T03:41:50.939Z,73.60
2022-08-07T03:43:26.653Z,73.77
2022-08-07T03:45:05.222Z,74.25
2022-08-07T03:47:10.561Z,74.04
2022-08-07T03:48:32.731Z,74.14
2022-08-07T03:50:04.988Z,74.11
2022-08-07T03:51:47.927Z,73.72
2022-08-07T03:54:05.741Z,74.21
2022-08-07T03:55:53.034Z,74.32
2022-08-07T03:58:32.892Z,74.42
2022-08-07T03:59:13.341Z,74.73
2022-08-07T04:00:56.994Z,74.60
2022-08-07T04:02:31.977Z,75.23
2022-08-07T04:04:04.861Z,75.27
2022-08-07T04:05:50.687Z,75.12
2022-08-07T04:07:41.711Z,74.78
2022-08-07T04:09:16.291Z,74.78
2022-08-07T04:10:54.742Z,75.24
2022-08-07T04:12:47.632Z,75.21
2022-08-07T04:14:38.625Z,75.22
2022-08-07T04:16:13.416Z,75.10
2022-08-07T04:18:31.434Z,75.36
2022-08-07T04:19:52.440Z,75.50
2022-08-07T04:21:31.915Z,75.50
2022-08-07T04:23:06.444Z,75.62
2022-08-07T04:24:43.403Z,75.38
2022-08-07T04:26:21.671Z,75.65
2022-08-07T04:27:59.478Z,75.74
2022-08-07T04:29:48.662Z,75.28
2022-08-07T04:32:02.661Z,75.60
2022-08-07T04:33:19.152Z,75.31
2022-08-07T04:34:57.360Z,76.10
2022-08-07T04:36:29.896Z,75.59
2022-08-07T04:38:08.796Z,75.78
2022-08-07T04:39:47.930Z,75.49
2022-08-07T04:41:22.221Z,76.01
2022-08-07T04:43:01.846Z,76.23
2022-08-07T04:44:54.413Z,75.86
2022-08-07T04:47:03.931Z,76.67
2022-08-07T04:48:52.587Z,76.52
2022-08-07T04:50:52.920Z,76.31
2022-08-07T04:52:27.895Z,76.88
2022-08-07T04:54:17.765Z,77.09
2022-08-07T04:58:16.378Z,76.45
2022-08-07T04:59:15.938Z,76.58
2022-08-07T05:00:48.896Z,77.21
2022-08-07T05:02:24.991Z,77.08
2022-08-07T05:04:07.401Z,77.76
2022-08-07T05:05:57.310Z,78.25
2022-08-07T05:07:48.346Z,77.80
2022-08-07T05:09:45.505Z,78.02
2022-08-07T05:11:57.455Z,78.05
2022-08-07T05:14:51.993Z,78.41
2022-08-07T05:15:31.309Z,77.90
2022-08-07T05:17:11.722Z,78.37
2022-08-07T05:18:48.712Z,78.48
2022-08-07T05:20:27.223Z,78.36
2022-08-07T05:22:04.593Z,77.78
2022-08-07T05:23:42.471Z,78.48
2022-08-07T05:25:26.162Z,77.51
2022-08-07T05:27:14.513Z,78.24
2022-08-07T05:29:04.636Z,78.49
2022-08-07T05:30:39.837Z,78.58
2022-08-07T05:32:14.846Z,78.48
2022-08-07T05:34:01.051Z,78.57
2022-08-07T05:35:42.056Z,78.34
2022-08-07T05:37:25.357Z,78.83
2022-08-07T05:40:05.547Z,78.41
2022-08-07T05:41:11.955Z,77.98
2022-08-07T05:42:55.878Z,78.45
2022-08-07T05:44:31.111Z,78.53
2022-08-07T05:46:06.217Z,78.20
2022-08-07T05:48:02.158Z,77.83
2022-08-07T05:49:40.650Z,77.99
2022-08-07T05:51:14.582Z,77.65
2022-08-07T05:52:48.109Z,78.01
2022-08-07T05:54:30.845Z,77.81
2022-08-07T05:56:14.247Z,77.94
2022-08-07T05:57:54.416Z,77.46
2022-08-07T05:59:28.074Z,77.41
2022-08-07T06:01:10.504Z,76.74
2022-08-07T06:02:48.902Z,77.09
2022-08-07T06:04:29.975Z,76.77
2022-08-07T06:06:02.394Z,76.69
2022-08-07T06:08:14.171Z,76.41
2022-08-07T06:10:04.333Z,76.25
2022-08-07T06:11:20.826Z,76.72
2022-08-07T06:12:55.926Z,76.36
2022-08-07T06:14:28.684Z,76.87
2022-08-07T06:16:07.948Z,76.05
2022-08-07T06:17:53.813Z,76.10
2022-08-07T06:19:52.097Z,76.08
2022-08-07T06:22:15.027Z,76.19
2022-08-07T06:23:46.268Z,75.74
2022-08-07T06:25:10.164Z,75.22
2022-08-07T06:26:42.990Z,75.28
2022-08-07T06:28:16.087Z,75.05
2022-08-07T06:30:00.974Z,74.95
2022-08-07T06:31:47.335Z,74.72
2022-08-07T06:33:26.270Z,74.96
2022-08-07T06:35:00.119Z,74.96
2022-08-07T06:36:35.523Z,75.52
2022-08-07T06:38:19.880Z,74.94
2022-08-07T06:40:17.801Z,74.97
2022-08-07T06:42:00.941Z,74.72
2022-08-07T06:44:06.647Z,74.25
2022-08-07T06:45:44.275Z,73.88
2022-08-07T06:47:20.945Z,74.01
2022-08-07T06:48:53.868Z,73.25
2022-08-07T06:50:30.536Z,73.00
2022-08-07T06:52:07.424Z,72.27
2022-08-07T06:55:29.757Z,71.76
2022-08-07T06:55:59.877Z,71.40
2022-08-07T06:57:43.590Z,70.79
2022-08-07T07:00:15.034Z,70.30
2022-08-07T07:01:18.787Z,68.85
2022-08-07T07:02:54.491Z,69.38
2022-08-07T07:04:33.275Z,67.76
2022-08-07T07:06:11.215Z,69.26
2022-08-07T07:07:59.047Z,68.05
2022-08-07T07:09:36.214Z,68.97
2022-08-07T07:11:14.460Z,67.94
2022-08-07T07:13:16.885Z,68.10
2022-08-07T07:15:24.089Z,67.65
2022-08-07T07:17:00.452Z,67.68
2022-08-07T07:18:48.179Z,67.77
2022-08-07T07:20:24.476Z,67.93
2022-08-07T07:22:04.939Z,67.31
2022-08-07T07:24:09.835Z,67.79
2022-08-07T07:26:34.001Z,66.21
2022-08-07T07:27:35.630Z,66.41
2022-08-07T07:29:39.553Z,66.49
2022-08-07T07:31:44.179Z,65.76
2022-08-07T07:33:17.847Z,65.32
2022-08-07T07:34:57.705Z,64.42
2022-08-07T07:36:32.402Z,64.47
2022-08-07T07:38:06.454Z,64.04
2022-08-07T07:39:52.423Z,63.79
2022-08-07T07:41:30.954Z,63.61
2022-08-07T07:43:27.772Z,62.25
2022-08-07T07:45:13.062Z,62.45
2022-08-07T07:46:55.231Z,62.74
2022-08-07T07:48:34.988Z,62.01
2022-08-07T07:50:33.158Z,61.37
2022-08-07T07:52:03.313Z,59.65
2022-08-07T07:53:52.420Z,59.18
2022-08-07T07:55:27.377Z,58.11
2022-08-07T07:57:11.569Z,58.50
2022-08-07T07:58:44.038Z,57.73
2022-08-07T08:00:28.836Z,57.70
2022-08-07T08:02:10.682Z,57.16
2022-08-07T08:04:10.574Z,57.91
2022-08-07T08:05:50.438Z,56.33
2022-08-07T08:07:35.506Z,53.40
2022-08-07T08:09:17.166Z,54.62
2022-08-07T08:10:49.426Z,55.18
2022-08-07T08:12:51.289Z,54.91
2022-08-07T08:14:13.679Z,54.63
2022-08-07T08:15:58.095Z,55.71
2022-08-07T08:17:57.755Z,55.46
2022-08-07T08:20:18.311Z,55.43
2022-08-07T08:21:55.749Z,54.66
2022-08-07T08:23:52.245Z,53.31
2022-08-07T08:25:49.448Z,52.37
2022-08-07T08:27:37.425Z,51.10
2022-08-07T08:29:10.874Z,50.87
2022-08-07T08:30:51.101Z,50.57
2022-08-07T08:32:53.821Z,51.19
2022-08-07T08:34:26.985Z,49.87
2022-08-07T08:35:59.959Z,47.40
2022-08-07T08:38:00.507Z,49.32
2022-08-07T08:39:39.239Z,49.88
2022-08-07T08:42:04.003Z,47.93
2022-08-07T08:43:55.814Z,46.91
2022-08-07T08:45:59.279Z,44.88
2022-08-07T08:47:52.871Z,47.31
2022-08-07T08:49:46.877Z,47.00
2022-08-07T08:52:13.139Z,42.83
2022-08-07T08:53:35.883Z,45.72
2022-08-07T08:55:54.532Z,44.35
2022-08-07T08:57:38.103Z,45.04
2022-08-07T08:59:42.351Z,43.99
2022-08-07T09:01:40.166Z,40.49
2022-08-07T09:03:47.502Z,39.91
2022-08-07T09:05:36.674Z,38.81
2022-08-07T09:07:34.201Z,37.42
2022-08-07T09:09:57.670Z,39.26
2022-08-07T09:12:02.806Z,35.80
2022-08-07T09:13:53.940Z,39.39
2022-08-07T09:16:22.309Z,38.60
2022-08-07T09:18:01.497Z,39.20
2022-08-07T09:20:35.228Z,39.80
2022-08-07T09:24:27.454Z,36.88
2022-08-07T09:24:32.816Z,38.46
2022-08-07T09:26:34.010Z,36.26
2022-08-07T09:30:01.575Z,34.82
2022-08-07T09:30:08.969Z,36.86
2022-08-07T09:32:16.246Z,38.57
2022-08-07T09:34:22.941Z,37.48
2022-08-07T09:36:07.782Z,39.07
2022-08-07T09:37:53.465Z,37.48
2022-08-07T09:39:54.115Z,36.56
2022-08-07T09:41:58.658Z,36.87
2022-08-07T09:44:20.053Z,35.93
2022-08-07T09:47:52.677Z,36.94
2022-08-07T09:48:20.598Z,37.75
2022-08-07T09:50:19.005Z,36.88
2022-08-07T09:52:16.158Z,35.53
2022-08-07T09:54:03.411Z,34.71
2022-08-07T09:56:03.913Z,34.73
2022-08-07T09:58:05.043Z,34.35
2022-08-07T10:00:00.955Z,33.68
2022-08-07T10:02:14.134Z,34.09
2022-08-07T10:04:04.974Z,35.34
2022-08-07T10:06:00.120Z,35.28
2022-08-07T10:08:01.201Z,34.72
2022-08-07T10:10:00.239Z,32.06
2022-08-07T10:12:16.670Z,33.96
2022-08-07T10:14:00.457Z,34.06
2022-08-07T10:16:05.982Z,33.98
2022-08-07T10:18:01.849Z,33.07
2022-08-07T10:20:00.538Z,33.13
2022-08-07T10:22:12.110Z,33.13
2022-08-07T10:24:08.396Z,32.94
2022-08-07T10:25:55.924Z,31.84
2022-08-07T10:27:51.237Z,32.55
2022-08-07T10:29:45.821Z,31.33
2022-08-07T10:32:36.515Z,31.44
2022-08-07T10:34:31.942Z,29.72
2022-08-07T10:36:42.251Z,32.05
2022-08-07T10:38:48.045Z,30.82
2022-08-07T10:40:33.609Z,31.50
2022-08-07T10:42:36.309Z,29.05
2022-08-07T10:44:28.665Z,31.70
2022-08-07T10:46:20.546Z,33.16
2022-08-07T10:48:13.795Z,32.28
2022-08-07T10:50:15.165Z,31.99
2022-08-07T10:52:01.574Z,32.00
2022-08-07T10:54:00.225Z,30.31
2022-08-07T10:56:20.650Z,32.19
2022-08-07T10:58:13.902Z,29.67
2022-08-07T11:00:04.937Z,31.17
2022-08-07T11:01:51.944Z,31.46
2022-08-07T11:04:01.295Z,29.13
2022-08-07T11:06:01.700Z,31.40
2022-08-07T11:08:00.835Z,30.43
2022-08-07T11:10:07.828Z,30.19
2022-08-07T11:12:18.909Z,30.45
2022-08-07T11:14:45.763Z,29.87
2022-08-07T11:16:02.874Z,29.26
2022-08-07T11:18:03.345Z,29.11
2022-08-07T11:19:36.311Z,30.01
2022-08-07T11:21:20.732Z,28.41
2022-08-07T11:23:02.795Z,30.14
2022-08-07T11:25:14.868Z,30.13
2022-08-07T11:27:08.163Z,30.14
2022-08-07T11:29:05.698Z,29.68
2022-08-07T11:31:21.636Z,29.47
2022-08-07T11:33:53.345Z,29.51
2022-08-07T11:35:25.053Z,29.69
2022-08-07T11:37:01.276Z,30.63
2022-08-07T11:38:50.625Z,29.83
2022-08-07T11:40:49.661Z,29.12
2022-08-07T11:42:44.016Z,30.03
2022-08-07T11:44:39.675Z,27.06
2022-08-07T11:46:39.989Z,26.77
2022-08-07T11:48:35.944Z,27.12
2022-08-07T11:50:35.155Z,29.97
2022-08-07T11:52:29.374Z,29.97
2022-08-07T11:54:16.810Z,31.29
2022-08-07T11:56:27.028Z,30.53
2022-08-07T11:58:16.200Z,30.07
2022-08-07T12:00:20.241Z,29.60
2022-08-07T12:02:20.525Z,28.97
2022-08-07T12:04:17.676Z,30.12
2022-08-07T12:05:59.421Z,30.36
2022-08-07T12:07:40.475Z,31.16
2022-08-07T12:09:23.744Z,28.56
2022-08-07T12:11:20.981Z,26.73
2022-08-07T12:13:01.259Z,29.11
2022-08-07T12:14:42.868Z,29.91
2022-08-07T12:16:35.712Z,28.19
2022-08-07T12:18:16.058Z,26.73
2022-08-07T12:20:12.861Z,27.47
2022-08-07T12:22:39.401Z,28.95
2022-08-07T12:24:38.140Z,26.81
2022-08-07T12:26:44.817Z,28.71
2022-08-07T12:28:31.352Z,28.10
2022-08-07T12:30:06.073Z,28.55
2022-08-07T12:32:01.867Z,29.69
2022-08-07T12:34:01.471Z,28.39
2022-08-07T12:35:29.301Z,28.07
2022-08-07T12:37:16.952Z,28.77
2022-08-07T12:39:02.352Z,27.65
2022-08-07T12:40:47.815Z,26.39
2022-08-07T12:42:31.821Z,28.16
2022-08-07T12:44:13.107Z,30.03
2022-08-07T12:46:25.909Z,28.90
2022-08-07T12:48:27.657Z,29.71
2022-08-07T12:50:34.469Z,29.79
2022-08-07T12:52:18.125Z,28.22
2022-08-07T12:54:03.357Z,30.20
2022-08-07T12:56:02.890Z,28.66
2022-08-07T12:57:59.173Z,29.56
2022-08-07T12:59:37.122Z,29.36
2022-08-07T13:01:32.123Z,29.76
2022-08-07T13:03:56.247Z,29.47
2022-08-07T13:06:03.428Z,27.47
2022-08-07T13:08:11.958Z,29.30
2022-08-07T13:10:28.391Z,28.92
2022-08-07T13:12:29.685Z,29.03
2022-08-07T13:14:30.180Z,28.18
2022-08-07T13:16:17.624Z,28.08
2022-08-07T13:18:28.407Z,28.30
2022-08-07T13:20:10.188Z,27.43
2022-08-07T13:21:57.323Z,28.02
2022-08-07T13:24:04.497Z,26.65
2022-08-07T13:26:03.807Z,28.45
2022-08-07T13:28:13.735Z,26.81
2022-08-07T13:29:58.359Z,26.97
2022-08-07T13:31:55.075Z,28.98
2022-08-07T13:34:30.796Z,29.03
2022-08-07T13:36:00.910Z,28.40
2022-08-07T13:37:49.690Z,26.96
2022-08-07T13:40:33.924Z,28.62
2022-08-07T13:41:54.939Z,27.72
2022-08-07T13:43:27.840Z,27.03
2022-08-07T13:46:11.610Z,28.55
2022-08-07T13:46:54.801Z,25.76
2022-08-07T13:48:34.629Z,28.36
2022-08-07T13:50:34.858Z,28.42
2022-08-07T13:52:27.227Z,28.78
2022-08-07T13:54:03.356Z,29.21
2022-08-07T13:55:37.052Z,28.98
2022-08-07T13:57:23.899Z,28.32
2022-08-07T13:59:05.577Z,28.40
2022-08-07T14:00:54.025Z,28.46
2022-08-07T14:02:29.582Z,28.71
2022-08-07T14:04:35.345Z,28.90
2022-08-07T14:06:10.082Z,29.07
2022-08-07T14:08:00.722Z,28.79
2022-08-07T14:10:01.564Z,29.07
2022-08-07T14:11:28.867Z,29.01
2022-08-07T14:13:33.574Z,29.37
2022-08-07T14:15:07.738Z,29.07
2022-08-07T14:16:50.074Z,29.68
2022-08-07T14:18:30.469Z,28.52
2022-08-07T14:20:42.554Z,29.38
2022-08-07T14:22:41.318Z,28.80
2022-08-07T14:24:02.416Z,29.27
2022-08-07T14:25:39.568Z,27.75
2022-08-07T14:28:12.973Z,28.45
2022-08-07T14:30:07.995Z,27.74
2022-08-07T14:31:16.576Z,28.36
2022-08-07T14:32:56.382Z,28.63
2022-08-07T14:34:30.503Z,28.41
2022-08-07T14:36:02.820Z,28.44
2022-08-07T14:37:39.235Z,28.45
2022-08-07T14:40:17.514Z,28.45
2022-08-07T14:41:12.353Z,28.17
2022-08-07T14:43:55.665Z,28.18
2022-08-07T14:44:53.774Z,28.58
2022-08-07T14:46:33.321Z,27.98
2022-08-07T14:48:07.090Z,28.48
2022-08-07T14:49:56.771Z,28.57
2022-08-07T14:52:03.905Z,28.06
2022-08-07T14:55:20.288Z,27.14
2022-08-07T14:56:57.641Z,27.34
2022-08-07T14:58:37.557Z,29.37
2022-08-07T15:00:29.713Z,28.39
2022-08-07T15:02:31.664Z,28.83
2022-08-07T15:04:07.685Z,29.79
2022-08-07T15:05:54.644Z,30.11
2022-08-07T15:09:57.429Z,29.49
2022-08-07T15:13:22.537Z,28.16
2022-08-07T15:15:07.361Z,29.64
2022-08-07T15:17:04.977Z,28.88
2022-08-07T15:18:45.185Z,30.07
2022-08-07T15:20:32.904Z,29.37
2022-08-07T15:22:10.145Z,29.03
2022-08-07T15:25:15.911Z,28.75
2022-08-07T15:25:55.572Z,29.15
2022-08-07T15:27:30.002Z,28.00
2022-08-07T15:30:04.694Z,28.52
2022-08-07T15:31:05.678Z,28.60
2022-08-07T15:34:50.725Z,29.04
2022-08-07T15:37:03.357Z,29.00
2022-08-07T15:40:34.609Z,29.46
2022-08-07T15:42:43.668Z,30.56
2022-08-07T15:44:04.377Z,27.81
2022-08-07T15:45:56.562Z,29.09
2022-08-07T15:48:00.032Z,30.31
2022-08-07T15:50:03.964Z,30.03
2022-08-07T15:51:22.600Z,29.11
2022-08-07T15:53:25.161Z,30.55
2022-08-07T15:55:19.953Z,30.25
2022-08-07T15:56:59.397Z,30.68
2022-08-07T15:58:52.116Z,29.35
2022-08-07T16:00:33.845Z,30.62
2022-08-07T16:02:07.542Z,31.27
2022-08-07T16:03:47.136Z,31.02
2022-08-07T16:05:30.946Z,30.28
2022-08-07T16:08:33.647Z,31.04
2022-08-07T16:09:02.650Z,31.02
2022-08-07T16:10:36.757Z,31.04
2022-08-07T16:12:12.158Z,30.74
2022-08-07T16:14:03.016Z,29.63
2022-08-07T16:15:57.284Z,30.43
2022-08-07T16:18:02.993Z,30.45
2022-08-07T16:19:59.526Z,30.44
2022-08-07T16:22:33.434Z,31.47
2022-08-07T16:24:52.679Z,30.55
2022-08-07T16:26:31.216Z,29.94
2022-08-07T16:30:06.345Z,30.17
2022-08-07T16:31:50.051Z,30.83
2022-08-07T16:34:01.921Z,30.40
2022-08-07T16:35:51.841Z,30.70
2022-08-07T16:38:09.782Z,30.53
2022-08-07T16:39:48.872Z,31.04
2022-08-07T16:41:59.452Z,30.21
2022-08-07T16:44:03.998Z,31.19
2022-08-07T16:46:21.374Z,30.95
2022-08-07T16:50:28.729Z,31.30
2022-08-07T16:52:51.328Z,31.25
2022-08-07T16:54:34.913Z,31.20
2022-08-07T16:56:39.821Z,31.84
2022-08-07T16:58:20.345Z,31.52
2022-08-07T17:00:02.422Z,31.63
2022-08-07T17:01:57.257Z,31.89
2022-08-07T17:03:59.724Z,31.86
2022-08-07T17:06:28.772Z,32.00
2022-08-07T17:07:55.613Z,31.73
2022-08-07T17:10:08.442Z,31.73
2022-08-07T17:12:04.403Z,31.93
2022-08-07T17:14:18.493Z,31.81
2022-08-07T17:16:10.284Z,31.44
2022-08-07T17:18:03.667Z,31.92
2022-08-07T17:20:01.757Z,31.20
2022-08-07T17:21:50.646Z,31.91
2022-08-07T17:23:32.061Z,32.07
2022-08-07T17:25:15.225Z,31.57
2022-08-07T17:27:02.637Z,31.16
2022-08-07T17:28:56.055Z,32.03
2022-08-07T17:30:58.403Z,31.36
2022-08-07T17:32:36.815Z,32.29
2022-08-07T17:34:34.548Z,31.79
2022-08-07T17:36:31.577Z,32.71
2022-08-07T17:38:33.637Z,32.83
2022-08-07T17:40:11.392Z,32.57
2022-08-07T17:42:02.086Z,32.11
2022-08-07T17:44:02.776Z,33.16
2022-08-07T17:45:42.141Z,32.80
2022-08-07T17:47:38.104Z,33.12
2022-08-07T17:49:22.942Z,33.39
2022-08-07T17:51:59.705Z,33.43
2022-08-07T17:54:00.795Z,32.85
2022-08-07T17:56:00.834Z,34.13
2022-08-07T17:57:56.657Z,33.62
2022-08-07T17:59:39.587Z,34.58
2022-08-07T18:01:21.004Z,34.12
2022-08-07T18:02:57.650Z,34.59
2022-08-07T18:04:36.765Z,34.17
2022-08-07T18:06:16.808Z,35.96
2022-08-07T18:08:24.437Z,35.37
2022-08-07T18:10:06.388Z,35.52
2022-08-07T18:12:17.624Z,35.25
2022-08-07T18:13:49.951Z,36.08
2022-08-07T18:15:33.031Z,35.49
2022-08-07T18:18:46.956Z,35.47
2022-08-07T18:21:02.364Z,35.69
2022-08-07T18:21:53.399Z,36.25
2022-08-07T18:23:50.832Z,36.80
2022-08-07T18:25:40.410Z,36.58
2022-08-07T18:27:17.372Z,36.21
2022-08-07T18:28:57.749Z,36.21
2022-08-07T18:30:39.472Z,37.00
2022-08-07T18:32:46.393Z,36.42
2022-08-07T18:34:33.829Z,36.65
2022-08-07T18:36:39.128Z,37.45
2022-08-07T18:38:58.641Z,37.13
2022-08-07T18:40:42.701Z,37.23
2022-08-07T18:42:46.917Z,37.21
2022-08-07T18:45:43.689Z,36.69
2022-08-07T18:47:00.032Z,36.97
2022-08-07T18:50:18.927Z,37.51
2022-08-07T18:52:38.657Z,38.09
2022-08-07T18:53:39.515Z,38.38
2022-08-07T18:55:40.677Z,38.81
2022-08-07T18:57:37.033Z,38.78
2022-08-07T18:59:59.352Z,38.22
2022-08-07T19:02:18.921Z,38.93
2022-08-07T19:04:27.073Z,39.62
2022-08-07T19:06:20.486Z,39.81
2022-08-07T19:08:30.000Z,39.79
2022-08-07T19:10:12.103Z,39.46
2022-08-07T19:12:15.726Z,39.72
2022-08-07T19:14:17.136Z,40.56
2022-08-07T19:16:43.200Z,40.98
2022-08-07T19:18:34.910Z,41.15
2022-08-07T19:20:29.314Z,41.44
2022-08-07T19:22:31.423Z,41.28
2022-08-07T19:24:11.415Z,41.39
2022-08-07T19:26:24.687Z,42.47
2022-08-07T19:28:58.035Z,42.41
2022-08-07T19:31:05.815Z,42.35
2022-08-07T19:32:07.986Z,42.59
2022-08-07T19:33:44.941Z,43.28
2022-08-07T19:35:33.098Z,42.67
2022-08-07T19:37:10.259Z,42.77
2022-08-07T19:38:54.480Z,42.73
2022-08-07T19:40:31.308Z,42.66
2022-08-07T19:42:22.325Z,42.58
2022-08-07T19:44:02.928Z,42.37
2022-08-07T19:46:07.838Z,43.15
2022-08-07T19:47:43.256Z,43.59
2022-08-07T19:49:58.454Z,43.15
2022-08-07T19:51:19.298Z,42.45
2022-08-07T19:52:58.474Z,43.09
2022-08-07T19:54:45.046Z,43.91
2022-08-07T19:57:59.878Z,42.65
2022-08-07T19:58:28.392Z,43.00
2022-08-07T20:00:12.502Z,42.90
2022-08-07T20:02:02.207Z,42.93
2022-08-07T20:03:40.116Z,42.53
2022-08-07T20:05:17.272Z,43.46
2022-08-07T20:06:57.314Z,42.80
2022-08-07T20:08:33.667Z,42.17
2022-08-07T20:10:36.069Z,42.40
2022-08-07T20:12:31.281Z,43.63
2022-08-07T20:13:53.938Z,42.92
2022-08-07T20:15:33.073Z,42.47
2022-08-07T20:17:09.782Z,43.22
2022-08-07T20:18:43.452Z,43.50
2022-08-07T20:20:22.670Z,43.13
2022-08-07T20:21:58.487Z,42.86
2022-08-07T20:23:42.897Z,42.56
2022-08-07T20:25:19.849Z,43.61
2022-08-07T20:26:55.695Z,43.47
2022-08-07T20:28:30.896Z,43.47
2022-08-07T20:30:07.635Z,43.34
2022-08-07T20:31:45.218Z,43.70
2022-08-07T20:33:36.986Z,43.36
2022-08-07T20:35:16.004Z,43.73
2022-08-07T20:36:51.726Z,43.89
2022-08-07T20:38:24.586Z,43.93
2022-08-07T20:40:04.382Z,43.78
2022-08-07T20:41:40.426Z,44.29
2022-08-07T20:43:19.339Z,44.09
2022-08-07T20:44:52.257Z,43.90
2022-08-07T20:46:34.532Z,44.04
2022-08-07T20:48:28.576Z,44.66
2022-08-07T20:50:02.935Z,44.12
2022-08-07T20:51:35.761Z,44.57
2022-08-07T20:53:13.622Z,44.35
2022-08-07T20:54:53.742Z,45.12
2022-08-07T20:56:28.519Z,44.99
2022-08-07T20:58:03.639Z,44.44
2022-08-07T21:00:07.974Z,44.65
2022-08-07T21:01:45.984Z,45.12
2022-08-07T21:03:27.558Z,44.94
2022-08-07T21:05:01.356Z,44.93
2022-08-07T21:06:36.963Z,45.35
2022-08-07T21:08:14.819Z,45.53
2022-08-07T21:09:53.175Z,45.08
2022-08-07T21:11:50.015Z,45.75
2022-08-07T21:13:57.936Z,45.57
2022-08-07T21:15:22.544Z,46.12
2022-08-07T21:18:02.257Z,45.23
2022-08-07T21:19:10.305Z,45.77
2022-08-07T21:20:56.086Z,45.92
2022-08-07T21:22:30.736Z,45.99
2022-08-07T21:24:17.592Z,45.46
2022-08-07T21:26:09.579Z,46.08
2022-08-07T21:27:47.777Z,46.34
2022-08-07T21:29:55.084Z,46.02
2022-08-07T21:32:42.305Z,46.41
2022-08-07T21:33:42.113Z,46.52
2022-08-07T21:35:16.688Z,46.97
2022-08-07T21:37:14.652Z,47.11
2022-08-07T21:39:46.279Z,47.58
2022-08-07T21:41:25.201Z,47.28
2022-08-07T21:43:06.055Z,47.14
2022-08-07T21:46:08.365Z,47.47
2022-08-07T21:47:17.491Z,47.72
2022-08-07T21:49:14.426Z,47.91
2022-08-07T21:50:52.069Z,47.67
2022-08-07T21:52:40.842Z,47.96
2022-08-07T21:54:34.193Z,48.36
2022-08-07T21:56:49.025Z,48.22
2022-08-07T21:58:32.843Z,48.89
2022-08-07T22:00:22.964Z,48.96
2022-08-07T22:02:07.647Z,49.30
2022-08-07T22:03:51.776Z,48.52
2022-08-07T22:05:44.178Z,48.99
2022-08-07T22:07:22.816Z,49.06
2022-08-07T22:09:06.897Z,49.54
2022-08-07T22:10:42.330Z,49.73
2022-08-07T22:12:27.924Z,49.42
2022-08-07T22:14:15.255Z,49.70
2022-08-07T22:16:42.654Z,50.52
2022-08-07T22:18:10.023Z,50.78
2022-08-07T22:19:57.154Z,51.04
2022-08-07T22:22:04.911Z,51.06
2022-08-07T22:23:57.086Z,51.23
2022-08-07T22:25:44.206Z,51.79
2022-08-07T22:27:21.353Z,50.64
2022-08-07T22:29:13.957Z,51.64
2022-08-07T22:30:55.320Z,52.56
2022-08-07T22:32:42.311Z,52.36
2022-08-07T22:34:28.893Z,52.20
2022-08-07T22:36:28.173Z,52.43
2022-08-07T22:38:24.125Z,52.21
2022-08-07T22:40:18.738Z,53.23
2022-08-07T22:42:04.201Z,53.12
2022-08-07T22:43:56.447Z,52.47
2022-08-07T22:46:42.487Z,52.95
2022-08-07T22:48:13.673Z,52.94
2022-08-07T22:50:04.485Z,53.34
2022-08-07T22:52:07.127Z,53.51
2022-08-07T22:54:08.087Z,54.08
2022-08-07T22:56:19.354Z,53.76
2022-08-07T22:58:15.193Z,53.61
2022-08-07T23:00:06.251Z,54.35
2022-08-07T23:01:58.987Z,54.21
2022-08-07T23:03:57.912Z,54.35
2022-08-07T23:06:10.127Z,53.84
2022-08-07T23:08:24.247Z,54.35
2022-08-07T23:10:37.796Z,54.57
2022-08-07T23:12:34.054Z,54.91
2022-08-07T23:14:25.114Z,54.80
2022-08-07T23:16:43.287Z,54.78
2022-08-07T23:18:16.343Z,55.07
2022-08-07T23:20:51.055Z,55.26
2022-08-07T23:22:58.769Z,54.80
2022-08-07T23:24:45.722Z,56.08
2022-08-07T23:26:23.431Z,56.12
2022-08-07T23:28:28.619Z,55.68
2022-08-07T23:30:37.278Z,55.62
2022-08-07T23:34:23.957Z,56.30
2022-08-07T23:34:39.469Z,56.36
2022-08-07T23:36:36.792Z,56.17
2022-08-07T23:38:42.783Z,56.67
2022-08-07T23:40:27.748Z,56.72
2022-08-07T23:42:30.521Z,57.14